ADDS METAR Data INFO
IDs: Format: Raw Decoded Include TAF

Data at: 0316 UTC 20 Jul 2018

METAR for:KMCO (Orlando Intl, FL, US)
Text:KMCO 200253Z 17003KT 10SM FEW040 FEW070 OVC250 26/25 A3000 RMK AO2 LTG DSNT NW SLP157 T02560250 51015
Temperature: 25.6°C ( 78°F)
Dewpoint: 25.0°C ( 77°F) [RH = 96%]
Pressure (altimeter):30.00 inches Hg (1016.0 mb) [Sea level pressure: 1015.7 mb]
Winds:from the S (170 degrees) at 3 MPH (3 knots; 1.5 m/s)
Visibility:10 or more sm (16+ km)
Ceiling:25000 feet AGL
Clouds: few clouds at 4000 feet AGL, few clouds at 7000 feet AGL, overcast cloud deck at 25000 feet AGL